Time;durP1;ratioP1;P1;durP2;ratioP2;P2;SDS_P1;SDS_P2;PMS_P1;PMS_P2;Temp;Humidity;BMP_temperature;BMP_pressure;BME280_temperature;BME280_humidity;BME280_pressure;Samples;Min_cycle;Max_cycle;Signal;HPM_P1;HPM_P2
2022/02/14 00:01:53;;;;;;;7.85;2.55;;;10.80;99.90;;;;;;5030110;28;20055;-38
2022/02/14 00:04:18;;;;;;;9.82;2.28;;;10.80;99.90;;;;;;5016582;28;20030;-38
2022/02/14 00:06:44;;;;;;;4.45;2.13;;;10.80;99.90;;;;;;5026611;28;20390;-39
2022/02/14 00:09:10;;;;;;;8.40;2.40;;;10.80;99.90;;;;;;5032080;28;20025;-39
2022/02/14 00:11:36;;;;;;;3.47;2.47;;;10.80;99.90;;;;;;5032347;28;20029;-39
2022/02/14 00:14:01;;;;;;;5.72;2.80;;;10.80;99.90;;;;;;5031073;28;20108;-39
2022/02/14 00:16:27;;;;;;;8.88;2.47;;;10.80;99.90;;;;;;5031000;28;20030;-38
2022/02/14 00:18:53;;;;;;;4.85;2.88;;;10.80;99.90;;;;;;5024142;28;20022;-39
2022/02/14 00:21:18;;;;;;;5.35;2.67;;;10.80;99.90;;;;;;5032134;28;20116;-38
2022/02/14 00:23:44;;;;;;;5.20;2.83;;;10.80;99.90;;;;;;5032325;28;20021;-39
2022/02/14 00:26:10;;;;;;;16.23;2.88;;;10.80;99.90;;;;;;5035703;28;20025;-39
2022/02/14 00:28:35;;;;;;;8.05;2.58;;;10.80;99.90;;;;;;5034818;28;20030;-39
2022/02/14 00:31:01;;;;;;;5.47;2.40;;;10.80;99.90;;;;;;5016164;28;20022;-42
2022/02/14 00:33:28;;;;;;;4.25;2.15;;;10.90;99.90;;;;;;5016981;28;20018;-48
2022/02/14 00:35:53;;;;;;;7.50;2.53;;;10.90;99.90;;;;;;5035927;28;20025;-38
2022/02/14 00:38:20;;;;;;;8.10;3.10;;;10.90;99.90;;;;;;5024426;28;20026;-38
2022/02/14 00:40:46;;;;;;;8.57;3.15;;;10.90;99.90;;;;;;5035889;28;20108;-39
2022/02/14 00:43:12;;;;;;;4.68;2.47;;;10.90;99.90;;;;;;5035844;28;20498;-38
2022/02/14 00:45:38;;;;;;;23.95;3.63;;;10.90;99.90;;;;;;5035347;28;20025;-39
2022/02/14 00:48:05;;;;;;;6.00;2.50;;;10.90;99.90;;;;;;5032866;28;20034;-39
2022/02/14 00:50:30;;;;;;;7.72;2.33;;;10.80;99.90;;;;;;5035648;28;20028;-38
2022/02/14 00:52:56;;;;;;;5.85;1.75;;;10.80;99.90;;;;;;5032695;28;20021;-39
2022/02/14 00:55:22;;;;;;;6.97;2.38;;;10.80;99.90;;;;;;5015999;28;20010;-39
2022/02/14 00:57:49;;;;;;;5.95;2.35;;;10.90;99.90;;;;;;5031695;28;20033;-38
2022/02/14 01:00:16;;;;;;;4.15;2.40;;;10.90;99.90;;;;;;5035517;28;20489;-39
2022/02/14 01:02:42;;;;;;;8.30;2.28;;;10.90;99.90;;;;;;5035427;28;20427;-39
2022/02/14 01:05:10;;;;;;;6.53;2.60;;;10.90;99.90;;;;;;5034739;28;20108;-38
2022/02/14 01:07:36;;;;;;;7.53;2.70;;;10.90;99.90;;;;;;5020411;28;20029;-40
2022/02/14 01:10:03;;;;;;;3.45;2.22;;;10.90;99.90;;;;;;5015458;28;20022;-39
2022/02/14 01:12:29;;;;;;;8.60;3.05;;;10.90;99.90;;;;;;5015563;28;20028;-40
2022/02/14 01:14:55;;;;;;;6.30;2.63;;;10.90;99.90;;;;;;5021223;28;20385;-39
2022/02/14 01:17:22;;;;;;;10.25;3.15;;;10.90;99.90;;;;;;5035119;28;20113;-39
2022/02/14 01:19:47;;;;;;;4.90;2.67;;;11.00;99.90;;;;;;5034561;28;20101;-43
2022/02/14 01:22:13;;;;;;;4.47;2.28;;;11.00;99.90;;;;;;5034911;28;20180;-39
2022/02/14 01:24:40;;;;;;;3.67;2.38;;;11.00;99.90;;;;;;5033192;28;20025;-39
2022/02/14 01:27:06;;;;;;;7.82;2.45;;;11.00;99.90;;;;;;5035147;28;20423;-38
2022/02/14 01:29:34;;;;;;;8.68;2.30;;;10.90;99.90;;;;;;5032641;28;20021;-40
2022/02/14 01:32:00;;;;;;;4.15;2.22;;;10.90;99.90;;;;;;5015081;28;20021;-46
2022/02/14 01:34:26;;;;;;;5.72;2.88;;;10.80;99.90;;;;;;5023349;28;20041;-40
2022/02/14 01:36:53;;;;;;;13.35;2.25;;;10.80;99.90;;;;;;5034107;28;20025;-40
2022/02/14 01:39:19;;;;;;;5.05;2.38;;;10.80;99.90;;;;;;5017138;28;20413;-37
2022/02/14 01:41:45;;;;;;;8.45;2.10;;;10.80;99.90;;;;;;5028449;28;20022;-38
2022/02/14 01:44:30;;;;;;;8.45;2.60;;;10.80;99.90;;;;;;5032770;28;20509;-39
2022/02/14 01:46:55;;;;;;;8.38;1.80;;;10.80;99.90;;;;;;5034604;28;20025;-38
2022/02/14 01:49:21;;;;;;;2.97;1.88;;;10.80;99.90;;;;;;5016829;28;20388;-39
2022/02/14 01:51:46;;;;;;;8.88;1.95;;;10.80;99.90;;;;;;5023440;28;20022;-38
2022/02/14 01:54:12;;;;;;;6.53;2.42;;;10.80;99.90;;;;;;5032764;28;20017;-38
2022/02/14 01:56:37;;;;;;;7.43;2.60;;;10.80;99.90;;;;;;5034459;28;20032;-39
2022/02/14 01:59:03;;;;;;;3.72;1.98;;;10.80;99.90;;;;;;5016705;28;20088;-40
2022/02/14 02:01:29;;;;;;;6.68;2.28;;;10.80;99.90;;;;;;5014546;28;20068;-38
2022/02/14 02:03:54;;;;;;;2.80;1.70;;;10.70;99.90;;;;;;5023599;28;20113;-38
2022/02/14 02:06:20;;;;;;;8.20;2.20;;;10.70;99.90;;;;;;5034130;28;20029;-38
2022/02/14 02:08:45;;;;;;;8.55;1.92;;;10.70;99.90;;;;;;5033412;28;20022;-40
2022/02/14 02:13:55;;;;;;;7.80;2.00;;;10.60;99.90;;;;;;5014543;28;20049;-39
2022/02/14 02:16:21;;;;;;;2.90;1.73;;;10.60;99.90;;;;;;5012738;28;20033;-39
2022/02/14 02:18:47;;;;;;;9.85;2.13;;;10.50;99.90;;;;;;5029099;28;20094;-39
2022/02/14 02:21:12;;;;;;;2.65;1.85;;;10.60;99.90;;;;;;5018381;28;20121;-38
2022/02/14 02:23:42;;;;;;;5.47;1.90;;;10.60;99.90;;;;;;5014516;28;20025;-38
2022/02/14 02:26:07;;;;;;;5.22;2.00;;;10.60;99.90;;;;;;5014236;28;20061;-38
2022/02/14 02:28:33;;;;;;;5.65;2.55;;;10.50;99.90;;;;;;5028318;28;20025;-39
2022/02/14 02:31:03;;;;;;;3.30;1.70;;;10.50;99.90;;;;;;5033342;28;20028;-39
2022/02/14 02:33:33;;;;;;;5.88;2.70;;;10.50;99.90;;;;;;5031560;28;20017;-38
2022/02/14 02:35:59;;;;;;;5.82;1.85;;;10.60;99.90;;;;;;5013870;28;20025;-37
2022/02/14 02:38:26;;;;;;;2.67;1.45;;;10.60;99.90;;;;;;5013929;28;20446;-39
2022/02/14 02:40:51;;;;;;;8.82;1.48;;;10.60;99.90;;;;;;5028301;28;20080;-38
2022/02/14 02:43:18;;;;;;;3.88;1.13;;;10.70;99.90;;;;;;5033026;28;20033;-41
2022/02/14 02:45:45;;;;;;;3.70;1.40;;;10.70;99.90;;;;;;5033690;28;20485;-43
2022/02/14 02:48:10;;;;;;;7.63;1.75;;;10.70;99.90;;;;;;5031259;28;20083;-39
2022/02/14 02:51:01;;;;;;;3.45;1.80;;;10.70;99.90;;;;;;5033371;28;20025;-39
2022/02/14 02:53:22;;;;;;;6.60;1.70;;;10.70;99.90;;;;;;5032620;28;20120;-69
2022/02/14 02:55:48;;;;;;;5.85;2.15;;;10.60;99.90;;;;;;5033338;28;20127;-39
2022/02/14 02:58:13;;;;;;;12.02;2.20;;;10.70;99.90;;;;;;5032247;28;20064;-39
2022/02/14 03:00:39;;;;;;;4.43;1.23;;;10.60;99.90;;;;;;5024284;28;20112;-38
2022/02/14 03:03:04;;;;;;;4.03;1.60;;;10.60;99.90;;;;;;5013552;28;20036;-39
2022/02/14 03:05:30;;;;;;;5.10;1.52;;;10.70;99.90;;;;;;5013464;28;20030;-39
2022/02/14 03:07:56;;;;;;;5.50;2.05;;;10.70;99.90;;;;;;5026030;28;20077;-39
2022/02/14 03:10:21;;;;;;;2.97;1.35;;;10.70;99.90;;;;;;5031379;28;20025;-37
2022/02/14 03:12:47;;;;;;;3.92;1.30;;;10.70;99.90;;;;;;5030783;28;20025;-40
2022/02/14 03:15:12;;;;;;;3.50;2.13;;;10.70;99.90;;;;;;5022443;28;20022;-38
2022/02/14 03:17:38;;;;;;;11.30;1.90;;;10.70;99.90;;;;;;5024806;28;20389;-39
2022/02/14 03:20:04;;;;;;;4.82;1.70;;;10.70;99.90;;;;;;5024485;28;20033;-38
2022/02/14 03:22:30;;;;;;;3.38;1.63;;;10.70;99.90;;;;;;5013006;28;20046;-39
2022/02/14 03:24:55;;;;;;;5.32;1.88;;;10.70;99.90;;;;;;5030116;28;20036;-38
2022/02/14 03:27:21;;;;;;;4.88;1.67;;;10.70;99.90;;;;;;5029805;28;20504;-41
2022/02/14 03:29:46;;;;;;;7.40;1.48;;;10.70;99.90;;;;;;5017606;28;20029;-39
2022/02/14 03:32:12;;;;;;;5.72;1.20;;;10.70;99.90;;;;;;5032421;28;20029;-40
2022/02/14 03:34:38;;;;;;;4.30;1.25;;;10.70;99.90;;;;;;5032500;28;20092;-39
2022/02/14 03:37:03;;;;;;;9.52;1.85;;;10.70;99.90;;;;;;5026620;28;20093;-38
2022/02/14 03:39:29;;;;;;;6.88;1.75;;;10.70;99.90;;;;;;5032151;28;20026;-39
2022/02/14 03:41:54;;;;;;;2.67;1.60;;;10.70;99.90;;;;;;5029740;28;20025;-39
2022/02/14 03:44:20;;;;;;;5.15;2.22;;;10.80;99.90;;;;;;5027507;28;20405;-40
2022/02/14 03:46:46;;;;;;;2.33;1.20;;;10.80;99.90;;;;;;5021663;28;20032;-52
2022/02/14 03:49:11;;;;;;;3.25;1.10;;;10.70;99.90;;;;;;5031295;28;20065;-43
2022/02/14 03:51:37;;;;;;;6.28;2.28;;;10.70;99.90;;;;;;5015578;28;20030;-38
2022/02/14 03:54:03;;;;;;;3.75;1.40;;;10.70;99.90;;;;;;5032548;28;20249;-38
2022/02/14 03:56:29;;;;;;;2.90;1.27;;;10.70;99.90;;;;;;5030154;28;20053;-39
2022/02/14 03:58:55;;;;;;;7.20;1.67;;;10.80;99.90;;;;;;5021397;28;20053;-40
2022/02/14 04:01:20;;;;;;;7.13;1.83;;;10.80;99.90;;;;;;5035289;28;20040;-39
2022/02/14 04:03:46;;;;;;;4.47;2.13;;;10.90;99.90;;;;;;5035786;28;20026;-42
2022/02/14 04:06:11;;;;;;;2.40;1.33;;;10.90;99.90;;;;;;5031692;28;20080;-38
2022/02/14 04:08:37;;;;;;;3.63;1.63;;;10.90;99.90;;;;;;5017119;28;20500;-41
2022/02/14 04:11:03;;;;;;;1.98;1.45;;;11.00;99.90;;;;;;5032327;28;20018;-40
2022/02/14 04:13:28;;;;;;;6.45;1.27;;;10.90;99.90;;;;;;5024671;28;20021;-39
2022/02/14 04:15:54;;;;;;;2.08;1.13;;;11.00;99.90;;;;;;5032341;28;20021;-38
2022/02/14 04:18:20;;;;;;;3.97;1.65;;;11.00;99.90;;;;;;5020302;28;20104;-40
2022/02/14 04:20:45;;;;;;;2.85;1.40;;;11.00;99.90;;;;;;5027967;28;20050;-39
2022/02/14 04:23:11;;;;;;;3.38;1.20;;;11.00;99.90;;;;;;5036326;28;20025;-40
2022/02/14 04:25:37;;;;;;;3.55;1.63;;;11.00;99.90;;;;;;5033826;28;20036;-39
2022/02/14 04:28:03;;;;;;;4.25;1.35;;;11.10;99.90;;;;;;5027246;28;20026;-39
2022/02/14 04:30:29;;;;;;;2.97;1.80;;;11.10;99.90;;;;;;5033864;28;20026;-53
2022/02/14 04:32:56;;;;;;;6.03;1.42;;;11.20;99.90;;;;;;5032100;28;20509;-39
2022/02/14 04:35:22;;;;;;;2.80;1.45;;;11.20;99.90;;;;;;5030526;28;20426;-40
2022/02/14 04:37:49;;;;;;;1.77;1.02;;;11.20;99.90;;;;;;5023092;28;20054;-39
2022/02/14 04:40:14;;;;;;;4.30;1.60;;;11.20;99.90;;;;;;5026964;28;20171;-44
2022/02/14 04:42:41;;;;;;;1.40;1.30;;;11.20;99.90;;;;;;5034608;28;20529;-39
2022/02/14 04:45:07;;;;;;;3.80;1.80;;;11.20;99.90;;;;;;5034981;28;20478;-39
2022/02/14 04:47:33;;;;;;;8.15;1.50;;;11.20;99.90;;;;;;5025359;28;20029;-38
2022/02/14 04:49:59;;;;;;;12.98;2.55;;;11.20;99.90;;;;;;5032317;28;20063;-38
2022/02/14 04:52:24;;;;;;;6.10;1.52;;;11.30;99.90;;;;;;5024437;28;20014;-38
2022/02/14 04:54:51;;;;;;;5.82;1.30;;;11.30;99.90;;;;;;5034963;28;20025;-37
2022/02/14 04:57:16;;;;;;;2.42;1.20;;;11.30;99.90;;;;;;5035199;28;20509;-39
2022/02/14 04:59:42;;;;;;;0.80;0.80;;;11.30;99.90;;;;;;5033243;28;20029;-39
2022/02/14 05:02:08;;;;;;;5.25;1.13;;;11.30;99.90;;;;;;5004992;28;20041;-39
2022/02/14 05:04:33;;;;;;;2.15;1.45;;;11.30;99.90;;;;;;5016435;28;20034;-39
2022/02/14 05:06:59;;;;;;;6.65;1.27;;;11.40;99.90;;;;;;5031402;28;20116;-39
2022/02/14 05:09:24;;;;;;;2.35;1.35;;;11.40;99.90;;;;;;5015800;28;20437;-39
2022/02/14 05:11:50;;;;;;;3.95;1.15;;;11.40;99.90;;;;;;5015020;28;20112;-39
2022/02/14 05:14:16;;;;;;;1.48;1.00;;;11.40;99.90;;;;;;5015436;28;20430;-59
2022/02/14 05:16:41;;;;;;;3.47;1.00;;;11.40;99.90;;;;;;5015458;28;20022;-39
2022/02/14 05:19:08;;;;;;;2.63;1.08;;;11.40;99.90;;;;;;5024982;28;20033;-38
2022/02/14 05:21:34;;;;;;;6.63;1.40;;;11.40;99.90;;;;;;5034853;28;20046;-39
2022/02/14 05:24:00;;;;;;;4.72;1.20;;;11.50;99.90;;;;;;5034770;28;20067;-40
2022/02/14 05:26:25;;;;;;;14.10;1.35;;;11.50;99.90;;;;;;5022696;28;20029;-40
2022/02/14 05:28:55;;;;;;;5.10;1.15;;;11.50;99.90;;;;;;5027252;28;20041;-41
2022/02/14 05:31:21;;;;;;;4.45;2.10;;;11.50;99.90;;;;;;5015063;28;20482;-40
2022/02/14 05:33:47;;;;;;;0.95;0.85;;;11.60;99.90;;;;;;5021100;28;20029;-40
2022/02/14 05:36:13;;;;;;;6.10;1.45;;;11.60;99.90;;;;;;5034845;28;20492;-44
2022/02/14 05:38:38;;;;;;;5.25;1.35;;;11.60;99.90;;;;;;5034320;28;20092;-41
2022/02/14 05:41:04;;;;;;;6.65;1.75;;;11.60;99.90;;;;;;5025983;28;20057;-38
2022/02/14 05:43:29;;;;;;;1.45;1.33;;;11.60;99.90;;;;;;5017658;28;20025;-40
2022/02/14 05:45:55;;;;;;;3.40;1.42;;;11.60;99.90;;;;;;5034620;28;20021;-39
2022/02/14 05:48:26;;;;;;;4.35;1.00;;;11.70;99.90;;;;;;5034519;28;20041;-40
2022/02/14 05:50:52;;;;;;;2.95;1.55;;;11.60;99.90;;;;;;5034892;28;20474;-39
2022/02/14 05:53:18;;;;;;;6.53;1.20;;;11.60;99.90;;;;;;5020088;28;20038;-39
2022/02/14 05:55:44;;;;;;;4.05;1.60;;;11.70;99.90;;;;;;5014742;28;20117;-38
2022/02/14 05:58:09;;;;;;;2.63;1.33;;;11.60;99.90;;;;;;5014750;28;20061;-42
2022/02/14 06:00:35;;;;;;;5.43;1.10;;;11.60;99.90;;;;;;5014605;28;20486;-39
2022/02/14 06:03:01;;;;;;;4.70;2.60;;;11.60;99.90;;;;;;5025419;28;20037;-39
2022/02/14 06:05:26;;;;;;;1.60;1.27;;;11.70;99.90;;;;;;5033420;28;20037;-39
2022/02/14 06:07:52;;;;;;;1.60;1.00;;;11.70;99.90;;;;;;5028557;28;20079;-40
2022/02/14 06:10:17;;;;;;;2.60;1.52;;;11.70;99.90;;;;;;5020389;28;20399;-40
2022/02/14 06:12:43;;;;;;;2.08;1.40;;;11.70;99.90;;;;;;5014351;28;20030;-37
2022/02/14 06:15:09;;;;;;;1.10;0.93;;;11.70;99.90;;;;;;5013850;28;20075;-44
2022/02/14 06:17:35;;;;;;;1.70;0.98;;;11.70;99.90;;;;;;5030522;28;20104;-42
2022/02/14 06:20:01;;;;;;;3.92;1.40;;;11.70;99.90;;;;;;5034030;28;20037;-39
2022/02/14 06:22:26;;;;;;;5.07;1.30;;;11.70;99.90;;;;;;5033052;28;20037;-41
2022/02/14 06:24:52;;;;;;;5.60;1.95;;;11.70;99.90;;;;;;5033162;28;20033;-40
2022/02/14 06:27:17;;;;;;;4.88;1.80;;;11.70;99.90;;;;;;5033882;28;20036;-39
2022/02/14 06:29:43;;;;;;;2.75;1.13;;;11.70;99.90;;;;;;5022604;28;20033;-44
2022/02/14 06:32:09;;;;;;;2.30;1.38;;;11.70;99.90;;;;;;5014285;28;20478;-39
2022/02/14 06:34:34;;;;;;;1.58;1.00;;;11.70;99.90;;;;;;5013005;28;20061;-39
2022/02/14 06:37:00;;;;;;;1.42;1.30;;;11.70;99.90;;;;;;5013877;28;20026;-42
2022/02/14 06:39:26;;;;;;;2.20;1.08;;;11.70;99.90;;;;;;5013822;28;20108;-40
2022/02/14 06:41:51;;;;;;;3.75;1.08;;;11.70;99.90;;;;;;5013819;28;20048;-38
2022/02/14 06:44:18;;;;;;;1.83;1.35;;;11.70;99.90;;;;;;5019248;28;20072;-39
2022/02/14 06:46:43;;;;;;;1.83;1.42;;;11.60;99.90;;;;;;5033447;28;20090;-40
2022/02/14 06:49:09;;;;;;;16.85;1.63;;;11.60;99.90;;;;;;5033752;28;20076;-39
2022/02/14 06:51:35;;;;;;;6.15;2.30;;;11.60;99.90;;;;;;5032568;28;20021;-40
2022/02/14 06:54:02;;;;;;;1.67;1.30;;;11.50;99.90;;;;;;5028863;28;20022;-41
2022/02/14 06:56:27;;;;;;;1.38;0.80;;;11.50;99.90;;;;;;5013553;28;20041;-40
2022/02/14 06:58:53;;;;;;;0.93;0.80;;;11.50;99.90;;;;;;5013532;28;20030;-39
2022/02/14 07:01:18;;;;;;;3.45;0.30;;;11.30;99.90;;;;;;5012211;28;20108;-40
2022/02/14 07:03:44;;;;;;;2.67;0.52;;;11.10;99.90;;;;;;5017572;28;20027;-38
2022/02/14 07:06:09;;;;;;;0.95;0.50;;;10.90;99.90;;;;;;5032525;28;20445;-39
2022/02/14 07:08:35;;;;;;;2.50;0.93;;;10.80;99.90;;;;;;5033173;28;20017;-40
2022/02/14 07:11:01;;;;;;;1.52;0.47;;;10.60;99.90;;;;;;5031770;28;20067;-40
2022/02/14 07:13:27;;;;;;;0.55;0.50;;;10.50;99.90;;;;;;5032385;28;20030;-43
2022/02/14 07:15:53;;;;;;;1.33;1.00;;;10.50;99.90;;;;;;5033078;28;20033;-39
2022/02/14 07:18:19;;;;;;;1.77;0.75;;;10.20;99.90;;;;;;5032109;28;20496;-41
2022/02/14 07:21:04;;;;;;;3.05;0.80;;;10.10;99.90;;;;;;5032616;28;20112;-39
2022/02/14 07:23:29;;;;;;;0.50;0.47;;;10.00;99.90;;;;;;5032205;28;20044;-40
2022/02/14 07:25:55;;;;;;;1.40;0.80;;;9.90;99.90;;;;;;5031944;28;20021;-40
2022/02/14 07:28:21;;;;;;;2.75;0.73;;;9.80;99.90;;;;;;5019959;28;20034;-40
2022/02/14 07:30:46;;;;;;;4.55;1.00;;;9.70;99.90;;;;;;5013282;28;20170;-39
2022/02/14 07:33:12;;;;;;;1.45;0.93;;;9.70;99.90;;;;;;5032257;28;20056;-40
2022/02/14 07:35:38;;;;;;;1.90;1.02;;;9.70;99.90;;;;;;5033027;28;20033;-40
2022/02/14 07:38:03;;;;;;;9.35;2.17;;;9.70;99.90;;;;;;5031538;28;20017;-39
2022/02/14 07:40:29;;;;;;;1.10;0.77;;;9.70;99.90;;;;;;5032585;28;20029;-38
2022/02/14 07:42:55;;;;;;;3.40;0.95;;;9.60;99.90;;;;;;5032885;28;20028;-39
2022/02/14 07:45:23;;;;;;;1.15;1.05;;;9.50;99.90;;;;;;5025301;28;20044;-40
2022/02/14 07:47:49;;;;;;;4.32;1.02;;;9.50;99.90;;;;;;5012762;28;20487;-39
2022/02/14 07:50:14;;;;;;;2.60;0.95;;;9.50;99.90;;;;;;5021380;28;20028;-38
2022/02/14 07:52:41;;;;;;;4.47;0.85;;;9.50;99.90;;;;;;5012879;28;20093;-39
2022/02/14 07:55:07;;;;;;;0.85;0.73;;;9.50;99.90;;;;;;5012860;28;20037;-39
2022/02/14 07:57:33;;;;;;;1.40;1.10;;;9.50;99.90;;;;;;5011528;28;20032;-40
2022/02/14 08:00:01;;;;;;;6.57;1.67;;;9.50;99.90;;;;;;5013597;28;20113;-40
2022/02/14 08:02:27;;;;;;;4.65;1.20;;;9.60;99.90;;;;;;5030542;28;20033;-39
2022/02/14 08:04:53;;;;;;;4.03;1.15;;;9.60;99.90;;;;;;5031877;28;20494;-40
2022/02/14 08:07:18;;;;;;;5.68;1.45;;;9.70;99.90;;;;;;5047481;28;20099;-39
2022/02/14 08:09:44;;;;;;;4.45;1.02;;;9.60;99.90;;;;;;5029531;28;20037;-38
2022/02/14 08:12:11;;;;;;;1.55;1.00;;;9.70;99.90;;;;;;5014133;28;20022;-41
2022/02/14 08:14:38;;;;;;;1.73;1.10;;;9.70;99.90;;;;;;5012986;28;20026;-54
2022/02/14 08:17:06;;;;;;;1.42;1.00;;;9.70;99.90;;;;;;5012720;28;20022;-41
2022/02/14 08:19:32;;;;;;;1.13;0.93;;;9.70;99.90;;;;;;5012502;28;20030;-39
2022/02/14 08:21:58;;;;;;;8.05;1.38;;;9.80;99.90;;;;;;5012348;28;20478;-41
2022/02/14 08:24:24;;;;;;;2.20;1.30;;;9.90;99.90;;;;;;5012513;28;20019;-43
2022/02/14 08:26:49;;;;;;;7.88;1.45;;;10.00;99.90;;;;;;5012803;28;20022;-56
2022/02/14 08:29:15;;;;;;;3.40;1.33;;;10.00;99.90;;;;;;5032047;28;20044;-40
2022/02/14 08:31:41;;;;;;;2.00;1.08;;;10.10;99.90;;;;;;5019787;28;20061;-40
2022/02/14 08:34:07;;;;;;;5.57;0.85;;;10.20;99.90;;;;;;5021607;28;20021;-38
2022/02/14 08:36:32;;;;;;;1.35;0.93;;;10.20;99.90;;;;;;5020303;28;20057;-39
2022/02/14 08:38:58;;;;;;;3.50;0.85;;;10.30;99.90;;;;;;5034015;28;20056;-38
2022/02/14 08:41:24;;;;;;;1.48;1.35;;;10.40;99.90;;;;;;5020757;28;20028;-40
2022/02/14 08:43:50;;;;;;;1.95;0.75;;;10.30;99.90;;;;;;5028670;28;20026;-43
2022/02/14 08:46:20;;;;;;;2.30;0.98;;;10.30;99.90;;;;;;5023302;28;20025;-40
2022/02/14 08:48:46;;;;;;;1.90;0.93;;;10.40;99.90;;;;;;5035536;28;20025;-40
2022/02/14 08:51:12;;;;;;;1.45;0.82;;;10.30;99.90;;;;;;5030211;28;20414;-41
2022/02/14 08:53:37;;;;;;;5.88;0.90;;;10.30;99.90;;;;;;5024310;28;20032;-39
2022/02/14 08:56:05;;;;;;;8.00;0.88;;;10.40;99.90;;;;;;5033906;28;20018;-40
2022/02/14 08:58:32;;;;;;;1.73;1.30;;;10.40;99.90;;;;;;5027782;28;20459;-41
2022/02/14 09:00:57;;;;;;;2.22;0.90;;;10.50;99.90;;;;;;5026818;28;20037;-40
2022/02/14 09:03:23;;;;;;;2.05;0.80;;;10.50;99.90;;;;;;5034621;28;20524;-39
2022/02/14 09:05:49;;;;;;;2.63;1.02;;;10.50;99.90;;;;;;5024408;28;20116;-40
2022/02/14 09:08:14;;;;;;;3.10;1.45;;;10.40;99.90;;;;;;5033462;28;20038;-40
2022/02/14 09:10:40;;;;;;;3.90;1.58;;;10.30;99.90;;;;;;5028464;28;20030;-40
2022/02/14 09:13:06;;;;;;;4.43;1.35;;;10.20;99.90;;;;;;5034317;28;20096;-39
2022/02/14 09:15:31;;;;;;;3.70;1.73;;;10.30;99.90;;;;;;5022742;28;20446;-38
2022/02/14 09:17:57;;;;;;;3.22;1.63;;;10.40;99.90;;;;;;5022163;28;20100;-39
2022/02/14 09:20:23;;;;;;;10.60;3.13;;;10.40;99.90;;;;;;5034148;28;20455;-50
2022/02/14 09:22:50;;;;;;;2.58;1.58;;;10.40;99.90;;;;;;5022391;28;20120;-38
2022/02/14 09:25:17;;;;;;;2.03;1.48;;;10.40;99.90;;;;;;5017419;28;20116;-45
2022/02/14 09:27:42;;;;;;;4.60;1.75;;;10.40;99.90;;;;;;5023093;28;20108;-39
2022/02/14 09:30:08;;;;;;;2.97;2.00;;;10.40;99.90;;;;;;5027021;28;20112;-41
2022/02/14 09:32:34;;;;;;;4.35;1.63;;;10.50;99.90;;;;;;5026988;28;20484;-40
2022/02/14 09:34:59;;;;;;;4.05;1.60;;;10.50;99.90;;;;;;5034554;28;20016;-58
2022/02/14 09:37:25;;;;;;;1.50;1.35;;;10.50;99.90;;;;;;5028987;28;20017;-39
2022/02/14 09:39:51;;;;;;;1.95;1.60;;;10.50;99.90;;;;;;5033152;28;20091;-39
2022/02/14 09:42:17;;;;;;;2.42;1.58;;;10.50;99.90;;;;;;5031045;28;20417;-59
2022/02/14 09:44:43;;;;;;;1.63;1.35;;;10.40;99.90;;;;;;5031230;28;20025;-39
2022/02/14 09:47:10;;;;;;;3.42;1.63;;;10.40;99.90;;;;;;5027926;28;20530;-38
2022/02/14 09:49:38;;;;;;;3.20;1.85;;;10.40;99.90;;;;;;5034552;28;20029;-38
2022/02/14 09:52:04;;;;;;;4.53;1.88;;;10.40;99.90;;;;;;5029174;28;20025;-39
2022/02/14 09:54:30;;;;;;;3.08;1.90;;;10.40;99.90;;;;;;5032816;28;20503;-40
2022/02/14 09:56:56;;;;;;;2.40;1.55;;;10.50;99.90;;;;;;5032797;28;20026;-39
2022/02/14 09:59:22;;;;;;;2.60;1.33;;;10.60;99.90;;;;;;5034436;28;20026;-40
2022/02/14 10:01:48;;;;;;;8.95;1.73;;;10.60;99.90;;;;;;5021409;28;20040;-41
2022/02/14 10:04:14;;;;;;;5.07;1.90;;;10.70;99.90;;;;;;5023028;28;20413;-41
2022/02/14 10:06:43;;;;;;;4.75;1.63;;;10.70;99.90;;;;;;5034048;28;20490;-36
2022/02/14 10:09:08;;;;;;;3.55;1.35;;;10.60;99.90;;;;;;5017673;28;20021;-38
2022/02/14 10:11:36;;;;;;;3.25;1.30;;;10.60;99.90;;;;;;5031490;28;20414;-38
2022/02/14 10:14:18;;;;;;;;;;;10.60;99.90;;;;;;5030797;28;20033;-38
2022/02/14 10:17:10;;;;;;;6.90;1.02;;;10.60;99.90;;;;;;5025341;28;19948;-39
2022/02/14 10:19:58;;;;;;;2.35;2.15;;;10.60;99.90;;;;;;5029846;28;20050;-39
2022/02/14 10:22:25;;;;;;;4.25;1.40;;;10.60;99.90;;;;;;5023891;28;20429;-37
2022/02/14 10:24:50;;;;;;;6.65;1.33;;;10.70;99.90;;;;;;5025782;28;20064;-38
2022/02/14 10:27:17;;;;;;;4.07;1.13;;;10.70;99.90;;;;;;5025095;28;20130;-38
2022/02/14 10:29:43;;;;;;;10.50;2.60;;;10.70;99.90;;;;;;5024251;28;20398;-36
2022/02/14 10:32:09;;;;;;;3.85;1.13;;;10.80;99.90;;;;;;5032428;28;20033;-39
2022/02/14 10:34:44;;;;;;;1.77;1.23;;;10.80;99.90;;;;;;5029758;28;20029;-38
2022/02/14 10:37:12;;;;;;;13.52;1.40;;;10.90;99.90;;;;;;5022173;28;20429;-39
2022/02/14 10:39:41;;;;;;;2.13;1.42;;;10.80;99.90;;;;;;5019445;28;20040;-34
2022/02/14 10:42:09;;;;;;;3.00;1.25;;;10.90;99.90;;;;;;5042785;28;20033;-39
2022/02/14 10:47:26;;;;;;;6.57;1.35;;;10.80;99.90;;;;;;5013723;28;20041;-40
2022/02/14 10:50:13;;;;;;;5.18;1.65;;;10.80;99.90;;;;;;5015021;28;20034;-42
2022/02/14 10:52:46;;;;;;;5.18;2.03;;;10.80;99.90;;;;;;5022000;28;20021;-41
2022/02/14 10:55:26;;;;;;;4.88;1.45;;;10.70;99.90;;;;;;5032812;28;20105;-40
2022/02/14 10:57:53;;;;;;;3.03;1.30;;;10.70;99.90;;;;;;5032857;28;20125;-40
2022/02/14 11:00:21;;;;;;;6.93;1.63;;;10.80;99.90;;;;;;5026060;28;20492;-43
2022/02/14 11:02:50;;;;;;;7.13;1.08;;;10.90;99.90;;;;;;5026908;28;20025;-40
2022/02/14 11:05:17;;;;;;;1.13;0.82;;;11.00;99.90;;;;;;5023606;28;20477;-39
2022/02/14 11:07:43;;;;;;;3.42;0.93;;;11.00;99.90;;;;;;5027014;28;20386;-42
2022/02/14 11:10:14;;;;;;;2.03;0.82;;;10.90;99.90;;;;;;5029682;28;20025;-39
2022/02/14 11:12:47;;;;;;;1.25;0.40;;;11.00;99.90;;;;;;5022106;28;20409;-39
2022/02/14 11:15:13;;;;;;;1.40;0.57;;;11.10;99.90;;;;;;5029164;28;20083;-44
2022/02/14 11:17:45;;;;;;;3.10;0.60;;;11.30;99.90;;;;;;5030594;28;20501;-37
2022/02/14 11:20:11;;;;;;;3.78;0.50;;;11.40;99.90;;;;;;5031799;28;20021;-41
2022/02/14 11:22:43;;;;;;;4.15;0.70;;;11.40;99.90;;;;;;5031570;28;20426;-41
2022/02/14 11:25:23;;;;;;;3.60;0.57;;;11.30;99.90;;;;;;5032068;28;20385;-44
2022/02/14 11:28:07;;;;;;;4.05;0.80;;;11.40;99.90;;;;;;5021231;28;20034;-40
2022/02/14 11:30:33;;;;;;;2.22;0.60;;;11.40;99.90;;;;;;5013503;28;20034;-43
2022/02/14 11:33:17;;;;;;;1.55;0.93;;;11.30;99.90;;;;;;5014820;28;20406;-45
2022/02/14 11:36:00;;;;;;;1.98;0.50;;;11.10;99.90;;;;;;5026655;28;20022;-40
2022/02/14 11:38:47;;;;;;;5.10;0.88;;;11.00;99.90;;;;;;5032903;28;20018;-41
2022/02/14 11:41:45;;;;;;;2.97;0.80;;;10.80;99.90;;;;;;5032133;28;20025;-40
2022/02/14 11:44:23;;;;;;;2.03;0.80;;;10.70;99.90;;;;;;5012455;28;20038;-43
2022/02/14 11:46:54;;;;;;;5.40;1.08;;;10.60;99.90;;;;;;5015030;28;20383;-40
2022/02/14 11:49:34;;;;;;;8.30;0.80;;;10.50;99.90;;;;;;5027914;28;20110;-41
2022/02/14 11:52:00;;;;;;;7.47;0.75;;;10.60;99.90;;;;;;5018755;28;20498;-43
2022/02/14 11:54:35;;;;;;;4.68;1.13;;;10.60;99.90;;;;;;5024860;28;20036;-38
2022/02/14 11:57:38;;;;;;;1.48;0.47;;;10.60;99.90;;;;;;5014154;28;20529;-39
2022/02/14 12:00:18;;;;;;;5.60;1.33;;;10.70;99.90;;;;;;5024018;28;20038;-41
2022/02/14 12:02:59;;;;;;;4.82;0.90;;;11.00;99.90;;;;;;5030815;28;20030;-43
2022/02/14 12:05:50;;;;;;;8.30;0.77;;;11.00;99.90;;;;;;5018959;28;20048;-39
2022/02/14 12:08:16;;;;;;;5.30;0.82;;;11.10;99.90;;;;;;5015772;28;20494;-41
2022/02/14 12:10:55;;;;;;;5.25;0.40;;;11.10;99.90;;;;;;5027782;28;20033;-40
2022/02/14 12:13:23;;;;;;;6.57;1.38;;;11.10;99.90;;;;;;5022015;28;20494;-40
2022/02/14 12:21:25;;;;;;;1.60;0.88;;;11.40;99.90;;;;;;5017061;28;20049;-40
2022/02/14 12:24:14;;;;;;;5.97;0.88;;;11.60;99.90;;;;;;5027385;28;20110;-37
2022/02/14 12:26:40;;;;;;;2.58;0.90;;;11.60;99.90;;;;;;5028388;28;20053;-44
2022/02/14 12:31:55;;;;;;;2.30;0.40;;;11.70;99.90;;;;;;5024422;28;20037;-38
2022/02/14 12:34:26;;;;;;;4.80;0.93;;;12.00;99.90;;;;;;5030964;28;20033;-40
2022/02/14 12:36:59;;;;;;;4.57;0.90;;;12.00;99.90;;;;;;5035001;28;20021;-40
2022/02/14 12:39:29;;;;;;;1.38;0.52;;;11.80;99.90;;;;;;5026760;28;20069;-40
2022/02/14 12:41:55;;;;;;;3.17;0.57;;;11.70;99.90;;;;;;5021889;28;20041;-39
2022/02/14 12:44:20;;;;;;;2.15;0.52;;;11.70;99.90;;;;;;5033156;28;20032;-41
2022/02/14 12:46:46;;;;;;;5.00;0.50;;;11.80;99.90;;;;;;5035897;28;20033;-40
2022/02/14 12:49:12;;;;;;;0.77;0.40;;;11.90;99.90;;;;;;5028996;28;20105;-39
2022/02/14 12:51:37;;;;;;;2.92;0.38;;;12.00;99.90;;;;;;5028750;28;20435;-43
2022/02/14 12:54:09;;;;;;;2.40;0.50;;;12.00;99.90;;;;;;5028419;28;20096;-38
2022/02/14 12:56:37;;;;;;;4.45;0.55;;;11.90;99.90;;;;;;5026025;28;20535;-39
2022/02/14 12:59:12;;;;;;;0.90;0.32;;;11.80;99.90;;;;;;5025918;28;20035;-44
2022/02/14 13:01:47;;;;;;;2.17;0.40;;;11.70;99.90;;;;;;5026785;28;20029;-50
2022/02/14 13:04:15;;;;;;;2.05;0.80;;;11.80;99.90;;;;;;5022503;28;20490;-37